Time;durP1;ratioP1;P1;durP2;ratioP2;P2;SDS_P1;SDS_P2;PMS_P1;PMS_P2;Temp;Humidity;BMP_temperature;BMP_pressure;BME280_temperature;BME280_humidity;BME280_pressure;Samples;Min_cycle;Max_cycle;Signal;HPM_P1;HPM_P2
2023/08/14 00:02:02;;;;;;;19.17;13.18;;;26.90;1.00;;;;;;4958074;28;20083;-54
2023/08/14 00:04:28;;;;;;;18.52;13.00;;;26.90;1.00;;;;;;4957794;28;20023;-54
2023/08/14 00:06:54;;;;;;;20.95;13.13;;;26.90;1.00;;;;;;4957590;28;20150;-54
2023/08/14 00:09:21;;;;;;;18.77;12.82;;;26.90;1.00;;;;;;4957599;28;20046;-54
2023/08/14 00:11:46;;;;;;;16.90;10.48;;;26.90;1.00;;;;;;4957807;28;20019;-54
2023/08/14 00:14:12;;;;;;;16.63;10.40;;;26.90;1.00;;;;;;4957474;28;20035;-55
2023/08/14 00:16:38;;;;;;;13.43;9.90;;;26.90;1.00;;;;;;4956175;28;20027;-55
2023/08/14 00:19:04;;;;;;;19.15;8.32;;;26.90;1.00;;;;;;4957263;28;20059;-54
2023/08/14 00:21:30;;;;;;;11.80;6.90;;;26.90;1.00;;;;;;4956116;29;20020;-54
2023/08/14 00:23:55;;;;;;;10.40;5.72;;;26.90;1.00;;;;;;4955977;28;20045;-53
2023/08/14 00:26:21;;;;;;;8.38;4.88;;;26.90;99.90;;;;;;4957232;28;20106;-54
2023/08/14 00:28:47;;;;;;;9.65;4.28;;;26.90;99.90;;;;;;4957375;28;20030;-54
2023/08/14 00:31:13;;;;;;;11.52;4.40;;;26.80;99.90;;;;;;4957289;28;20086;-53
2023/08/14 00:33:39;;;;;;;12.23;4.53;;;26.80;99.90;;;;;;4957124;28;20415;-54
2023/08/14 00:36:07;;;;;;;13.88;3.30;;;26.80;99.90;;;;;;4957261;28;20032;-54
2023/08/14 00:38:33;;;;;;;13.55;3.70;;;26.70;99.90;;;;;;4956971;28;20035;-54
2023/08/14 00:40:59;;;;;;;11.85;4.05;;;26.70;99.90;;;;;;4956977;28;20376;-54
2023/08/14 00:43:25;;;;;;;8.52;3.20;;;26.70;99.90;;;;;;4957059;28;20023;-54
2023/08/14 00:45:55;;;;;;;7.22;3.40;;;26.60;99.90;;;;;;4957139;28;20023;-54
2023/08/14 00:48:22;;;;;;;6.82;3.40;;;26.60;99.90;;;;;;4957114;28;20034;-54
2023/08/14 00:50:48;;;;;;;12.50;4.03;;;26.60;99.90;;;;;;4955711;29;20027;-54
2023/08/14 00:53:14;;;;;;;7.35;2.20;;;26.60;99.90;;;;;;4956711;28;20031;-53
2023/08/14 00:55:41;;;;;;;7.80;1.88;;;26.60;99.90;;;;;;4956837;28;20027;-53
2023/08/14 00:58:07;;;;;;;4.43;1.75;;;26.50;99.90;;;;;;4956707;28;20034;-53
2023/08/14 01:00:35;;;;;;;6.82;1.95;;;26.50;99.90;;;;;;4957222;28;20098;-53
2023/08/14 01:03:02;;;;;;;8.90;1.65;;;26.50;99.90;;;;;;4956571;28;20031;-53
2023/08/14 01:05:28;;;;;;;4.38;1.90;;;26.40;99.90;;;;;;4956565;28;20047;-53
2023/08/14 01:07:55;;;;;;;7.80;2.20;;;26.40;99.90;;;;;;4956573;28;20476;-54
2023/08/14 01:10:22;;;;;;;6.22;2.42;;;26.40;99.90;;;;;;4956767;28;20029;-55
2023/08/14 01:13:27;;;;;;;10.52;2.53;;;26.40;99.90;;;;;;4956666;28;20062;-52
2023/08/14 01:15:57;;;;;;;6.03;1.70;;;26.40;99.90;;;;;;4956588;29;20027;-49
2023/08/14 01:18:26;;;;;;;9.75;2.20;;;26.50;99.90;;;;;;4956430;28;20043;-50
2023/08/14 01:21:16;;;;;;;6.88;2.03;;;26.50;99.90;;;;;;4956507;28;20465;-49
2023/08/14 01:24:19;;;;;;;5.05;2.03;;;26.50;99.90;;;;;;4956699;28;20422;-50
2023/08/14 01:26:46;;;;;;;5.38;2.15;;;26.60;99.90;;;;;;4956099;28;20027;-49
2023/08/14 01:29:12;;;;;;;9.82;2.20;;;26.70;99.90;;;;;;4954807;28;20028;-50
2023/08/14 01:31:38;;;;;;;3.97;2.15;;;26.70;99.90;;;;;;4956091;28;20531;-49
2023/08/14 01:34:04;;;;;;;6.18;2.05;;;26.80;99.90;;;;;;4956092;28;20019;-49
2023/08/14 01:36:35;;;;;;;5.78;2.22;;;26.80;99.90;;;;;;4956123;28;20035;-50
2023/08/14 01:39:09;;;;;;;10.40;2.13;;;26.90;99.90;;;;;;4955865;28;20035;-50
2023/08/14 01:42:08;;;;;;;7.13;2.35;;;26.90;99.90;;;;;;4956099;28;20484;-50
2023/08/14 01:44:36;;;;;;;4.55;1.98;;;27.00;99.90;;;;;;4954886;29;20383;-50
2023/08/14 01:47:06;;;;;;;7.18;2.30;;;27.00;99.90;;;;;;4955800;28;20051;-48
2023/08/14 01:49:34;;;;;;;4.60;2.30;;;27.10;99.90;;;;;;4954615;29;20032;-49
2023/08/14 01:52:00;;;;;;;7.93;2.20;;;27.10;99.90;;;;;;4954900;28;20019;-49
2023/08/14 01:54:26;;;;;;;8.15;2.65;;;27.10;99.90;;;;;;4953773;28;20476;-50
2023/08/14 01:56:55;;;;;;;6.15;3.22;;;27.10;99.90;;;;;;4954694;28;20410;-50
2023/08/14 01:59:30;;;;;;;7.80;2.50;;;27.20;99.90;;;;;;4955373;28;20031;-50
2023/08/14 02:01:56;;;;;;;6.70;2.63;;;27.20;99.90;;;;;;4954060;29;20066;-49
2023/08/14 02:04:21;;;;;;;5.75;2.80;;;27.20;99.90;;;;;;4955742;28;20448;-50
2023/08/14 02:06:47;;;;;;;6.72;2.65;;;27.30;99.90;;;;;;4955537;28;20027;-50
2023/08/14 02:09:13;;;;;;;8.05;3.22;;;27.20;99.90;;;;;;4955482;29;20380;-50
2023/08/14 02:11:39;;;;;;;5.75;3.00;;;27.30;99.90;;;;;;4954055;28;20502;-49
2023/08/14 02:14:04;;;;;;;8.05;3.67;;;27.30;99.90;;;;;;4955413;28;20024;-50
2023/08/14 02:16:30;;;;;;;9.50;3.30;;;27.30;99.90;;;;;;4955075;28;20027;-51
2023/08/14 02:18:56;;;;;;;6.82;2.65;;;27.30;99.90;;;;;;4954905;28;20106;-50
2023/08/14 02:21:22;;;;;;;7.25;2.80;;;27.30;99.90;;;;;;4955598;28;20031;-50
2023/08/14 02:23:47;;;;;;;7.40;2.70;;;27.30;99.90;;;;;;4955273;28;20036;-50
2023/08/14 02:26:13;;;;;;;9.02;2.88;;;27.30;99.90;;;;;;4955060;28;20054;-50
2023/08/14 02:28:39;;;;;;;7.65;3.10;;;27.30;99.90;;;;;;4955123;28;20137;-50
2023/08/14 02:31:05;;;;;;;7.75;3.25;;;27.40;99.90;;;;;;4955408;29;20035;-49
2023/08/14 02:33:31;;;;;;;11.63;2.90;;;27.40;99.90;;;;;;4953727;28;20038;-50
2023/08/14 02:35:56;;;;;;;8.82;3.00;;;27.40;99.90;;;;;;4955206;28;20035;-50
2023/08/14 02:38:22;;;;;;;4.93;2.92;;;27.40;99.90;;;;;;4954948;28;20046;-50
2023/08/14 02:40:48;;;;;;;4.80;2.67;;;27.40;99.90;;;;;;4954926;28;20383;-50
2023/08/14 02:43:14;;;;;;;4.40;2.67;;;27.40;99.90;;;;;;4954776;28;20031;-49
2023/08/14 02:45:39;;;;;;;8.98;2.58;;;27.40;99.90;;;;;;4954677;28;20023;-49
2023/08/14 02:48:05;;;;;;;13.80;3.88;;;27.40;99.90;;;;;;4953586;28;20037;-50
2023/08/14 02:50:32;;;;;;;6.75;3.28;;;27.40;99.90;;;;;;4954881;28;20102;-49
2023/08/14 02:52:57;;;;;;;9.40;3.75;;;27.40;99.90;;;;;;4954921;28;20547;-50
2023/08/14 02:55:23;;;;;;;9.48;3.30;;;27.40;99.90;;;;;;4954739;28;20054;-49
2023/08/14 02:57:49;;;;;;;9.40;3.67;;;27.40;99.90;;;;;;4954499;28;20047;-49
2023/08/14 03:00:15;;;;;;;7.38;4.05;;;27.50;99.90;;;;;;4955213;28;20495;-48
2023/08/14 03:02:41;;;;;;;7.32;3.70;;;27.50;99.90;;;;;;4954453;28;20055;-50
2023/08/14 03:05:07;;;;;;;7.90;3.53;;;27.40;99.90;;;;;;4954335;28;20172;-49
2023/08/14 03:07:32;;;;;;;11.45;3.50;;;27.50;99.90;;;;;;4954409;28;20031;-49
2023/08/14 03:09:58;;;;;;;6.60;3.92;;;27.50;99.90;;;;;;4954651;28;20355;-49
2023/08/14 03:12:24;;;;;;;10.70;3.97;;;27.50;99.90;;;;;;4953133;28;20369;-49
2023/08/14 03:14:50;;;;;;;6.68;3.83;;;27.50;99.90;;;;;;4954358;28;20066;-49
2023/08/14 03:17:15;;;;;;;6.72;3.65;;;27.50;99.90;;;;;;4954255;28;20046;-48
2023/08/14 03:19:41;;;;;;;6.43;3.30;;;27.50;99.90;;;;;;4954114;28;20027;-49
2023/08/14 03:22:07;;;;;;;12.73;4.00;;;27.50;99.90;;;;;;4954126;29;20046;-49
2023/08/14 03:24:33;;;;;;;6.05;3.83;;;27.50;99.90;;;;;;4952989;28;20027;-49
2023/08/14 03:26:58;;;;;;;7.18;3.85;;;27.50;99.90;;;;;;4954367;29;20198;-49
2023/08/14 03:29:24;;;;;;;6.85;3.70;;;27.50;99.90;;;;;;4954095;29;20102;-49
2023/08/14 03:31:50;;;;;;;9.73;4.07;;;27.50;99.90;;;;;;4953179;28;20027;-49
2023/08/14 03:34:16;;;;;;;17.80;5.55;;;27.50;99.90;;;;;;4954020;28;20063;-49
2023/08/14 03:36:41;;;;;;;8.90;4.18;;;27.50;99.90;;;;;;4954035;28;20030;-48
2023/08/14 03:39:07;;;;;;;7.22;3.72;;;27.50;99.90;;;;;;4952679;28;20400;-49
2023/08/14 03:41:33;;;;;;;9.32;4.95;;;27.50;99.90;;;;;;4952590;28;20023;-48
2023/08/14 03:43:59;;;;;;;9.60;5.72;;;27.60;99.90;;;;;;4954019;28;20098;-50
2023/08/14 03:46:24;;;;;;;11.13;4.22;;;27.60;99.90;;;;;;4954011;28;20580;-49
2023/08/14 03:48:50;;;;;;;6.55;4.20;;;27.60;99.90;;;;;;4953912;29;20042;-49
2023/08/14 03:51:16;;;;;;;9.85;4.07;;;27.60;99.90;;;;;;4952639;29;20479;-49
2023/08/14 03:53:41;;;;;;;13.43;5.63;;;27.60;99.90;;;;;;4953839;28;20043;-49
2023/08/14 03:56:07;;;;;;;12.65;4.97;;;27.60;99.90;;;;;;4952430;28;20027;-51
2023/08/14 03:58:33;;;;;;;14.20;5.47;;;27.60;99.90;;;;;;4953542;28;20039;-49
2023/08/14 04:00:59;;;;;;;13.13;4.47;;;27.70;99.90;;;;;;4953575;29;20051;-50
2023/08/14 04:03:24;;;;;;;8.35;3.97;;;27.70;99.90;;;;;;4952387;28;20032;-50
2023/08/14 04:05:55;;;;;;;12.25;4.75;;;27.60;99.90;;;;;;4953691;29;20119;-50
2023/08/14 04:08:21;;;;;;;10.52;3.42;;;27.60;99.90;;;;;;4953779;28;20046;-49
2023/08/14 04:10:57;;;;;;;8.18;3.65;;;27.60;99.90;;;;;;4953521;28;20460;-50
2023/08/14 04:13:26;;;;;;;7.50;3.33;;;27.50;99.90;;;;;;4953842;29;20408;-49
2023/08/14 04:15:59;;;;;;;9.38;4.25;;;27.50;99.90;;;;;;4953574;28;20031;-49
2023/08/14 04:18:26;;;;;;;9.38;3.47;;;27.50;99.90;;;;;;4953538;28;20039;-49
2023/08/14 04:20:52;;;;;;;;;;;27.50;99.90;;;;;;4954050;28;20020;-50
2023/08/14 04:23:18;;;;;;;5.53;3.70;;;27.50;99.90;;;;;;4953571;28;19910;-50
2023/08/14 04:25:43;;;;;;;7.85;4.40;;;27.50;99.90;;;;;;4953490;28;20031;-49
2023/08/14 04:28:09;;;;;;;13.00;4.05;;;27.50;99.90;;;;;;4951121;28;20038;-50
2023/08/14 04:30:35;;;;;;;10.25;4.20;;;27.50;99.90;;;;;;4952100;28;20142;-50
2023/08/14 04:33:00;;;;;;;10.52;3.78;;;27.50;99.90;;;;;;4950039;28;20055;-50
2023/08/14 04:35:26;;;;;;;6.53;4.20;;;27.40;99.90;;;;;;4951953;28;20082;-50
2023/08/14 04:37:52;;;;;;;8.18;3.85;;;27.50;99.90;;;;;;4951256;28;20043;-50
2023/08/14 04:40:18;;;;;;;10.18;3.88;;;27.40;99.90;;;;;;4952912;28;20058;-50
2023/08/14 04:42:43;;;;;;;10.45;4.05;;;27.40;99.90;;;;;;4952979;28;20062;-50
2023/08/14 04:45:10;;;;;;;6.97;4.03;;;27.30;99.90;;;;;;4956169;28;20038;-49
2023/08/14 04:47:35;;;;;;;9.23;4.20;;;27.30;99.90;;;;;;4955691;28;20070;-49
2023/08/14 04:50:01;;;;;;;6.40;3.80;;;27.30;99.90;;;;;;4955886;28;20058;-50
2023/08/14 04:52:27;;;;;;;8.35;4.45;;;27.30;99.90;;;;;;4954604;28;20023;-49
2023/08/14 04:54:53;;;;;;;9.95;4.32;;;27.30;99.90;;;;;;4956685;28;20534;-49
2023/08/14 04:57:19;;;;;;;7.03;4.32;;;27.30;99.90;;;;;;4955634;29;20054;-48
2023/08/14 04:59:44;;;;;;;13.65;4.40;;;27.30;99.90;;;;;;4954962;28;20404;-49
2023/08/14 05:02:10;;;;;;;10.88;4.63;;;27.30;99.90;;;;;;4946310;28;20055;-49
2023/08/14 05:04:36;;;;;;;14.82;5.13;;;27.30;99.90;;;;;;4956031;28;20015;-50
2023/08/14 05:07:02;;;;;;;8.15;4.45;;;27.30;99.90;;;;;;4956453;29;20416;-50
2023/08/14 05:09:28;;;;;;;14.07;5.53;;;27.30;99.90;;;;;;4956157;28;20023;-51
2023/08/14 05:11:53;;;;;;;7.85;4.45;;;27.30;99.90;;;;;;4948587;29;20034;-50
2023/08/14 05:14:19;;;;;;;12.02;5.20;;;27.30;99.90;;;;;;4956201;28;20369;-51
2023/08/14 05:16:46;;;;;;;13.45;5.60;;;27.30;99.90;;;;;;4956099;28;20028;-49
2023/08/14 05:19:11;;;;;;;8.43;4.75;;;27.30;99.90;;;;;;4955805;28;20028;-51
2023/08/14 05:21:37;;;;;;;11.73;4.75;;;27.30;99.90;;;;;;4956043;28;20102;-50
2023/08/14 05:24:03;;;;;;;7.45;4.93;;;27.30;99.90;;;;;;4970773;28;20067;-50
2023/08/14 05:26:29;;;;;;;10.32;5.90;;;27.30;99.90;;;;;;4956079;28;20023;-50
2023/08/14 05:28:55;;;;;;;10.60;5.28;;;27.30;99.90;;;;;;4955960;28;20051;-50
2023/08/14 05:31:20;;;;;;;15.25;5.53;;;27.30;99.90;;;;;;4955922;28;20480;-49
2023/08/14 05:33:46;;;;;;;10.80;5.35;;;27.30;99.90;;;;;;4955964;28;20031;-50
2023/08/14 05:36:12;;;;;;;17.77;5.72;;;27.30;99.90;;;;;;4954603;28;20422;-50
2023/08/14 05:38:37;;;;;;;13.98;6.07;;;27.30;99.90;;;;;;4954217;28;20043;-51
2023/08/14 05:41:03;;;;;;;17.08;6.88;;;27.30;99.90;;;;;;4956134;28;20031;-50
2023/08/14 05:43:29;;;;;;;17.98;6.53;;;27.30;99.90;;;;;;4955055;28;20027;-51
2023/08/14 05:45:55;;;;;;;12.07;5.85;;;27.30;99.90;;;;;;4956023;28;20023;-51
2023/08/14 05:48:23;;;;;;;11.63;5.88;;;27.30;99.90;;;;;;4955753;28;20019;-51
2023/08/14 05:50:52;;;;;;;12.35;6.18;;;27.30;99.90;;;;;;4954379;29;20031;-51
2023/08/14 05:53:18;;;;;;;10.00;5.00;;;27.30;99.90;;;;;;4955777;28;20476;-51
2023/08/14 05:55:44;;;;;;;8.75;5.40;;;27.30;99.90;;;;;;4955037;28;20031;-51
2023/08/14 05:58:09;;;;;;;12.38;5.88;;;27.30;99.90;;;;;;4970392;28;20043;-50
2023/08/14 06:00:37;;;;;;;12.68;5.85;;;27.30;99.90;;;;;;4955744;28;20023;-51
2023/08/14 06:03:04;;;;;;;14.85;5.97;;;27.30;99.90;;;;;;4955817;28;20514;-51
2023/08/14 06:05:30;;;;;;;11.55;6.15;;;27.30;99.90;;;;;;4955504;28;20032;-51
2023/08/14 06:07:56;;;;;;;9.38;5.57;;;27.30;99.90;;;;;;4955347;28;20114;-51
2023/08/14 06:10:22;;;;;;;10.55;7.30;;;27.40;99.90;;;;;;4970301;28;20065;-49
2023/08/14 06:12:49;;;;;;;19.45;7.00;;;27.40;99.90;;;;;;4970305;28;20082;-50
2023/08/14 06:15:16;;;;;;;12.55;6.28;;;27.40;99.90;;;;;;4955480;28;20049;-49
2023/08/14 06:17:42;;;;;;;8.98;5.72;;;27.40;99.90;;;;;;4955241;28;20261;-49
2023/08/14 06:20:12;;;;;;;9.67;5.07;;;27.40;99.90;;;;;;4955296;28;20050;-49
2023/08/14 06:22:46;;;;;;;8.32;5.15;;;27.40;99.90;;;;;;4955499;28;20399;-50
2023/08/14 06:25:13;;;;;;;7.45;4.68;;;27.40;99.90;;;;;;4955291;28;20019;-51
2023/08/14 06:27:39;;;;;;;11.55;5.30;;;27.40;99.90;;;;;;4955169;28;20024;-50
2023/08/14 06:30:08;;;;;;;14.23;6.88;;;27.40;99.90;;;;;;4955117;28;20051;-50
2023/08/14 06:32:34;;;;;;;9.27;5.82;;;27.40;99.90;;;;;;4955251;28;20019;-49
2023/08/14 06:35:00;;;;;;;9.10;4.30;;;27.40;99.90;;;;;;4954943;28;20027;-50
2023/08/14 06:37:26;;;;;;;6.50;4.65;;;27.40;99.90;;;;;;4954911;28;20046;-50
2023/08/14 06:39:51;;;;;;;11.25;5.20;;;27.40;99.90;;;;;;4954840;28;20091;-51
2023/08/14 06:42:17;;;;;;;7.70;4.70;;;27.40;99.90;;;;;;4954867;28;20031;-50
2023/08/14 06:44:43;;;;;;;14.40;5.97;;;27.40;99.90;;;;;;4954654;28;20031;-50
2023/08/14 06:47:09;;;;;;;8.55;4.75;;;27.40;99.90;;;;;;4954771;28;20023;-50
2023/08/14 06:49:34;;;;;;;7.82;5.32;;;27.40;99.90;;;;;;4954891;28;20027;-48
2023/08/14 06:52:01;;;;;;;9.93;7.05;;;27.40;99.90;;;;;;4969562;28;20539;-50
2023/08/14 06:54:27;;;;;;;14.15;5.75;;;27.40;99.90;;;;;;4954649;28;20030;-50
2023/08/14 06:56:53;;;;;;;8.32;6.40;;;27.50;99.90;;;;;;4954430;28;20028;-50
2023/08/14 06:59:19;;;;;;;12.55;5.85;;;27.50;99.90;;;;;;4954518;28;20145;-51
2023/08/14 07:01:44;;;;;;;16.63;5.93;;;27.50;99.90;;;;;;4952996;29;20110;-50
2023/08/14 07:04:11;;;;;;;38.10;29.95;;;27.50;99.90;;;;;;4954572;28;20078;-50
2023/08/14 07:06:37;;;;;;;40.85;31.38;;;27.50;99.90;;;;;;4954503;28;20023;-50
2023/08/14 07:09:02;;;;;;;33.30;26.33;;;27.50;99.90;;;;;;4954547;28;20098;-50
2023/08/14 07:11:36;;;;;;;29.17;24.63;;;27.60;99.90;;;;;;4954340;28;20039;-50
2023/08/14 07:14:02;;;;;;;13.07;9.18;;;27.60;99.90;;;;;;4954243;28;20114;-50
2023/08/14 07:16:28;;;;;;;17.58;9.85;;;27.60;99.90;;;;;;4954246;28;20019;-51
2023/08/14 07:18:53;;;;;;;11.02;7.70;;;27.60;99.90;;;;;;4954000;28;20369;-50
2023/08/14 07:21:19;;;;;;;11.38;6.07;;;27.60;99.90;;;;;;4954147;28;20357;-51
2023/08/14 07:23:45;;;;;;;12.98;5.40;;;27.60;99.90;;;;;;4953991;28;20034;-50
2023/08/14 07:26:13;;;;;;;13.48;6.53;;;27.70;99.90;;;;;;4954052;28;20024;-51
2023/08/14 07:28:40;;;;;;;10.93;6.38;;;27.70;99.90;;;;;;4952927;28;20027;-51
2023/08/14 07:31:07;;;;;;;11.15;5.97;;;27.70;99.90;;;;;;4953872;28;20037;-51
2023/08/14 07:33:33;;;;;;;8.73;5.93;;;27.70;99.90;;;;;;4953997;28;20023;-51
2023/08/14 07:36:00;;;;;;;9.63;5.63;;;27.70;99.90;;;;;;4953781;28;20476;-51
2023/08/14 07:38:26;;;;;;;9.48;7.85;;;27.70;99.90;;;;;;4953910;28;20041;-51
2023/08/14 07:40:52;;;;;;;9.90;5.95;;;27.70;99.90;;;;;;4953823;28;20031;-49
2023/08/14 07:43:18;;;;;;;13.68;6.18;;;27.80;99.90;;;;;;4954015;28;20023;-51
2023/08/14 07:45:44;;;;;;;10.60;6.25;;;27.70;99.90;;;;;;4953882;28;20023;-51
2023/08/14 07:48:10;;;;;;;16.17;9.38;;;27.80;99.90;;;;;;4954089;28;20058;-50
2023/08/14 07:50:36;;;;;;;8.15;6.32;;;27.80;99.90;;;;;;4953791;28;20019;-51
2023/08/14 07:53:03;;;;;;;14.45;9.30;;;27.80;99.90;;;;;;4953809;28;20114;-51
2023/08/14 07:55:28;;;;;;;13.07;6.15;;;27.80;99.90;;;;;;4968628;28;20051;-50
2023/08/14 07:57:54;;;;;;;15.52;5.88;;;27.90;99.90;;;;;;4953723;28;20448;-49
2023/08/14 08:00:21;;;;;;;10.25;5.90;;;27.90;99.90;;;;;;4968638;28;20030;-51
2023/08/14 08:02:46;;;;;;;8.43;5.20;;;27.90;99.90;;;;;;4953630;28;20126;-50
2023/08/14 08:05:13;;;;;;;14.70;5.25;;;27.90;99.90;;;;;;4968757;28;20094;-50
2023/08/14 08:07:39;;;;;;;10.13;5.43;;;28.00;99.90;;;;;;4953747;28;20019;-50
2023/08/14 08:10:05;;;;;;;10.60;4.78;;;28.00;99.90;;;;;;4952478;29;20031;-51
2023/08/14 08:12:31;;;;;;;13.85;7.50;;;28.00;99.90;;;;;;4953647;28;20047;-50
2023/08/14 08:14:56;;;;;;;22.48;13.77;;;28.00;99.90;;;;;;4953611;28;20086;-51
2023/08/14 08:17:22;;;;;;;13.45;5.78;;;28.00;99.90;;;;;;4954311;28;20039;-51
2023/08/14 08:19:48;;;;;;;15.68;8.30;;;28.00;99.90;;;;;;4957620;28;20081;-51
2023/08/14 08:22:14;;;;;;;40.65;13.82;;;28.00;99.90;;;;;;4957910;28;20043;-50
2023/08/14 08:24:40;;;;;;;20.67;7.57;;;28.00;99.90;;;;;;4957518;28;20078;-51
2023/08/14 08:27:05;;;;;;;13.48;8.93;;;28.00;99.90;;;;;;4957202;28;20031;-50
2023/08/14 08:29:31;;;;;;;16.17;8.23;;;28.00;99.90;;;;;;4957279;28;20050;-50
2023/08/14 08:31:57;;;;;;;12.18;6.57;;;28.00;99.90;;;;;;4972097;28;20110;-51
2023/08/14 08:34:23;;;;;;;10.57;5.70;;;28.10;99.90;;;;;;4957152;28;20035;-51
2023/08/14 08:36:48;;;;;;;9.73;5.47;;;28.10;99.90;;;;;;4957054;28;20027;-51
2023/08/14 08:39:14;;;;;;;9.43;5.30;;;28.10;99.90;;;;;;4957129;29;20110;-50
2023/08/14 08:41:46;;;;;;;6.00;5.15;;;28.20;99.90;;;;;;4956491;28;20102;-50
2023/08/14 08:44:22;;;;;;;11.05;5.28;;;28.20;99.90;;;;;;4956466;28;20039;-51
2023/08/14 08:46:53;;;;;;;12.35;5.00;;;28.20;99.90;;;;;;4955261;29;20495;-52
2023/08/14 08:49:19;;;;;;;8.07;5.18;;;28.20;99.90;;;;;;4954070;29;20089;-51
2023/08/14 08:51:45;;;;;;;9.13;5.93;;;28.20;99.90;;;;;;4956480;28;20011;-47
2023/08/14 08:54:14;;;;;;;8.55;5.60;;;28.20;99.90;;;;;;4956188;28;20110;-48
2023/08/14 08:56:41;;;;;;;11.93;6.03;;;28.20;99.90;;;;;;4955204;28;20026;-50
2023/08/14 08:59:08;;;;;;;8.90;5.35;;;28.20;99.90;;;;;;4956321;28;20130;-48
2023/08/14 09:01:34;;;;;;;;;;;28.20;99.90;;;;;;4956467;28;20046;-49
2023/08/14 09:04:04;;;;;;;9.30;5.95;;;28.20;99.90;;;;;;4956194;28;19970;-47
2023/08/14 09:06:30;;;;;;;10.07;5.40;;;28.20;99.90;;;;;;4954991;28;20019;-49
2023/08/14 09:08:56;;;;;;;8.93;5.68;;;28.20;99.90;;;;;;4956139;28;20034;-49
2023/08/14 09:11:22;;;;;;;13.60;6.70;;;28.20;99.90;;;;;;4947981;28;20508;-49
2023/08/14 09:13:49;;;;;;;9.73;5.70;;;28.20;99.90;;;;;;4947239;28;20015;-50
2023/08/14 09:16:15;;;;;;;10.15;5.07;;;28.20;99.90;;;;;;4952680;28;20031;-49
2023/08/14 09:18:44;;;;;;;9.48;5.13;;;28.10;99.90;;;;;;4951383;29;20046;-49
2023/08/14 09:21:12;;;;;;;10.25;5.63;;;28.10;99.90;;;;;;4952964;28;20329;-50
2023/08/14 09:23:41;;;;;;;9.45;5.28;;;28.20;99.90;;;;;;4968375;28;20031;-50
2023/08/14 09:26:07;;;;;;;11.25;6.38;;;28.20;99.90;;;;;;4949009;28;20058;-50
2023/08/14 09:28:34;;;;;;;8.15;6.18;;;28.20;99.90;;;;;;4951824;28;20026;-50
2023/08/14 09:31:08;;;;;;;9.50;6.45;;;28.20;99.90;;;;;;4951616;28;20106;-49
2023/08/14 09:33:34;;;;;;;14.15;6.15;;;28.20;99.90;;;;;;4949707;28;20392;-48
2023/08/14 09:36:00;;;;;;;9.40;5.70;;;28.20;99.90;;;;;;4950848;28;20027;-51
2023/08/14 09:38:25;;;;;;;13.60;5.50;;;28.20;99.90;;;;;;4951298;28;20046;-51
2023/08/14 09:40:58;;;;;;;13.68;6.15;;;28.20;99.90;;;;;;4952526;28;20040;-50
2023/08/14 09:43:24;;;;;;;9.57;5.47;;;28.20;99.90;;;;;;4937358;28;20064;-49
2023/08/14 09:45:55;;;;;;;9.80;5.90;;;28.20;99.90;;;;;;4936119;29;20111;-49
2023/08/14 09:48:22;;;;;;;10.90;6.32;;;28.20;99.90;;;;;;4935558;29;20028;-51
2023/08/14 09:50:52;;;;;;;16.42;6.07;;;28.30;99.90;;;;;;4938971;28;20025;-50
2023/08/14 09:53:18;;;;;;;9.05;6.40;;;28.30;99.90;;;;;;4935709;29;20038;-49
2023/08/14 09:55:44;;;;;;;7.30;6.25;;;28.30;99.90;;;;;;4935866;29;20027;-48
2023/08/14 09:58:10;;;;;;;14.40;6.80;;;28.30;99.90;;;;;;4935326;29;20031;-50
2023/08/14 10:00:38;;;;;;;13.93;7.70;;;28.30;99.90;;;;;;4935691;29;20142;-49
2023/08/14 10:03:07;;;;;;;9.70;7.25;;;28.30;99.90;;;;;;4935439;29;20110;-48
2023/08/14 10:05:34;;;;;;;14.43;9.02;;;28.30;99.90;;;;;;4935446;29;20091;-49
2023/08/14 10:08:00;;;;;;;10.75;8.02;;;28.30;99.90;;;;;;4935390;29;20075;-48
2023/08/14 10:10:31;;;;;;;9.97;8.20;;;28.40;99.90;;;;;;4935295;29;20028;-49
2023/08/14 10:13:01;;;;;;;12.93;7.38;;;28.40;99.90;;;;;;4935344;29;20356;-49
2023/08/14 10:15:34;;;;;;;15.80;8.70;;;28.40;99.90;;;;;;4935067;29;20055;-50
2023/08/14 10:18:07;;;;;;;13.77;9.20;;;28.40;99.90;;;;;;4947511;29;20130;-49
2023/08/14 10:20:35;;;;;;;16.02;10.32;;;28.50;99.90;;;;;;4951059;28;20036;-49
2023/08/14 10:23:01;;;;;;;11.30;7.82;;;28.50;99.90;;;;;;4951303;28;20030;-50
2023/08/14 10:25:28;;;;;;;15.63;10.83;;;28.50;99.90;;;;;;4951526;28;20030;-50
2023/08/14 10:27:54;;;;;;;11.95;8.88;;;28.50;99.90;;;;;;4951031;28;20626;-51
2023/08/14 10:30:22;;;;;;;12.68;8.65;;;28.60;99.90;;;;;;4951479;28;20031;-50
2023/08/14 10:32:49;;;;;;;14.00;9.20;;;28.50;99.90;;;;;;4938451;29;20110;-50
2023/08/14 10:35:15;;;;;;;21.20;13.00;;;28.50;99.90;;;;;;4934932;29;20031;-50
2023/08/14 10:37:41;;;;;;;16.85;9.95;;;28.50;99.90;;;;;;4934609;29;20289;-49
2023/08/14 10:40:23;;;;;;;13.48;8.80;;;28.60;99.90;;;;;;4934542;28;20049;-50
2023/08/14 10:42:57;;;;;;;16.40;12.07;;;28.60;99.90;;;;;;4934956;29;20016;-50
2023/08/14 10:45:25;;;;;;;20.38;11.00;;;28.60;99.90;;;;;;4934700;29;20261;-49
2023/08/14 10:47:52;;;;;;;13.23;8.73;;;28.60;99.90;;;;;;4934518;29;20031;-49
2023/08/14 10:50:20;;;;;;;11.00;8.30;;;28.60;99.90;;;;;;4951621;28;20505;-48
2023/08/14 10:52:51;;;;;;;12.20;8.68;;;28.60;99.90;;;;;;4951019;28;20114;-49
2023/08/14 10:55:39;;;;;;;11.35;9.32;;;28.60;99.90;;;;;;4949387;28;20551;-49
2023/08/14 10:58:31;;;;;;;9.68;8.48;;;28.60;99.90;;;;;;4950111;28;20133;-49
2023/08/14 11:00:58;;;;;;;11.07;7.95;;;28.70;99.90;;;;;;4950606;28;20523;-49
2023/08/14 11:03:23;;;;;;;14.32;7.63;;;28.70;99.90;;;;;;4937718;28;20032;-50
2023/08/14 11:05:49;;;;;;;15.90;9.30;;;28.70;99.90;;;;;;4934446;29;20441;-50
2023/08/14 11:08:16;;;;;;;12.68;9.73;;;28.70;99.90;;;;;;4934486;29;20046;-50
2023/08/14 11:10:43;;;;;;;13.93;8.70;;;28.80;99.90;;;;;;4934579;29;20481;-51
2023/08/14 11:13:10;;;;;;;8.25;6.10;;;28.80;99.90;;;;;;4933282;29;20557;-48
2023/08/14 11:15:39;;;;;;;9.18;6.72;;;28.80;99.90;;;;;;4947797;29;20039;-49
2023/08/14 11:18:10;;;;;;;14.43;7.18;;;28.80;99.90;;;;;;4949949;28;20439;-48
2023/08/14 11:20:42;;;;;;;10.60;5.95;;;28.80;99.90;;;;;;4950412;28;20130;-49
2023/08/14 11:23:09;;;;;;;17.38;8.40;;;28.90;99.90;;;;;;4949593;29;20596;-49
2023/08/14 11:25:36;;;;;;;16.30;9.20;;;29.00;99.90;;;;;;4937335;28;20174;-48
2023/08/14 11:28:02;;;;;;;14.52;7.57;;;29.00;99.90;;;;;;4934106;29;20055;-48
2023/08/14 11:30:32;;;;;;;12.43;7.20;;;29.00;99.90;;;;;;4934172;29;20036;-48
2023/08/14 11:32:58;;;;;;;17.70;11.32;;;29.00;99.90;;;;;;4934265;29;20437;-48
2023/08/14 11:35:29;;;;;;;13.68;8.38;;;29.00;99.90;;;;;;4934120;29;20023;-49
2023/08/14 11:37:56;;;;;;;15.30;7.50;;;29.00;99.90;;;;;;4946538;29;20090;-49
2023/08/14 11:40:22;;;;;;;15.93;9.40;;;29.00;99.90;;;;;;4950230;28;20471;-48
2023/08/14 11:42:47;;;;;;;14.40;7.60;;;29.00;99.90;;;;;;4950818;28;20039;-49
2023/08/14 11:45:13;;;;;;;12.93;7.88;;;29.10;99.90;;;;;;4949815;28;20038;-48
2023/08/14 11:47:52;;;;;;;15.65;7.40;;;29.10;99.90;;;;;;4950251;28;20102;-49
2023/08/14 11:50:18;;;;;;;9.48;6.10;;;29.10;99.90;;;;;;4933889;29;20103;-48
2023/08/14 11:52:45;;;;;;;15.25;7.00;;;29.10;99.90;;;;;;4938508;29;20107;-49
2023/08/14 11:55:13;;;;;;;13.55;6.38;;;29.20;99.90;;;;;;4940646;28;20063;-49
2023/08/14 11:57:39;;;;;;;12.32;5.82;;;29.20;99.90;;;;;;4934886;29;20449;-48
2023/08/14 12:00:13;;;;;;;11.70;6.70;;;29.30;99.90;;;;;;4950051;28;20126;-59
2023/08/14 12:02:40;;;;;;;19.17;7.22;;;29.30;99.90;;;;;;4949692;28;20083;-50
2023/08/14 12:05:06;;;;;;;11.60;6.05;;;29.30;99.90;;;;;;4950096;28;20035;-51
2023/08/14 12:07:32;;;;;;;11.77;5.43;;;29.30;99.90;;;;;;4949121;28;20083;-53
2023/08/14 12:09:59;;;;;;;9.98;6.75;;;29.40;99.90;;;;;;4948706;29;20031;-52
2023/08/14 12:12:25;;;;;;;8.97;5.73;;;29.40;99.90;;;;;;4947840;28;20019;-53
2023/08/14 12:14:52;;;;;;;16.73;6.93;;;29.40;99.90;;;;;;4947934;28;20277;-51
2023/08/14 12:17:18;;;;;;;12.60;5.77;;;29.40;99.90;;;;;;4948623;29;20075;-51
2023/08/14 12:19:57;;;;;;;12.90;5.90;;;29.40;99.90;;;;;;4949768;28;20285;-51
2023/08/14 12:22:24;;;;;;;18.35;7.88;;;29.40;99.90;;;;;;4949121;28;20066;-51
2023/08/14 12:24:51;;;;;;;7.90;5.70;;;29.50;99.90;;;;;;4949750;28;20035;-50
2023/08/14 12:27:21;;;;;;;8.77;5.45;;;29.50;99.90;;;;;;4949592;28;20139;-50
2023/08/14 12:29:48;;;;;;;9.48;6.93;;;29.40;99.90;;;;;;4947249;29;20506;-50
2023/08/14 12:32:14;;;;;;;10.88;6.45;;;29.40;99.90;;;;;;4948453;29;20118;-49
2023/08/14 12:34:41;;;;;;;10.95;7.68;;;29.40;99.90;;;;;;4942673;28;20043;-50
2023/08/14 12:37:07;;;;;;;11.50;6.75;;;29.40;99.90;;;;;;4937990;28;20028;-48
2023/08/14 12:39:33;;;;;;;9.52;5.35;;;29.40;99.90;;;;;;4943454;28;20115;-48
2023/08/14 12:42:00;;;;;;;14.07;8.90;;;29.40;99.90;;;;;;4948532;29;20027;-48